sensor_id;sensor_type;location;lat;lon;timestamp;P1;P2;P0
44674;PMS5003;30388;52.038;-1.478;2022-12-29T00:00:35;0;0;
44674;PMS5003;30388;52.038;-1.478;2022-12-29T00:03:02;1;1;
44674;PMS5003;30388;52.038;-1.478;2022-12-29T00:05:29;1;1;
44674;PMS5003;30388;52.038;-1.478;2022-12-29T00:07:56;2;0;
44674;PMS5003;30388;52.038;-1.478;2022-12-29T00:10:24;1;1;
44674;PMS5003;30388;52.038;-1.478;2022-12-29T00:12:51;1;1;
44674;PMS5003;30388;52.038;-1.478;2022-12-29T00:15:18;0;0;
44674;PMS5003;30388;52.038;-1.478;2022-12-29T00:17:45;2;2;
44674;PMS5003;30388;52.038;-1.478;2022-12-29T00:20:12;2;1;
44674;PMS5003;30388;52.038;-1.478;2022-12-29T00:22:40;2;0;
44674;PMS5003;30388;52.038;-1.478;2022-12-29T00:25:08;1;1;
44674;PMS5003;30388;52.038;-1.478;2022-12-29T00:27:36;1;1;
44674;PMS5003;30388;52.038;-1.478;2022-12-29T00:30:07;2;2;
44674;PMS5003;30388;52.038;-1.478;2022-12-29T00:32:36;1;1;
44674;PMS5003;30388;52.038;-1.478;2022-12-29T00:35:03;1;1;
44674;PMS5003;30388;52.038;-1.478;2022-12-29T00:37:31;1;1;
44674;PMS5003;30388;52.038;-1.478;2022-12-29T00:39:58;0;0;
44674;PMS5003;30388;52.038;-1.478;2022-12-29T00:42:25;0;0;
44674;PMS5003;30388;52.038;-1.478;2022-12-29T00:44:53;3;2;
44674;PMS5003;30388;52.038;-1.478;2022-12-29T00:47:20;1;1;
44674;PMS5003;30388;52.038;-1.478;2022-12-29T00:49:47;2;1;
44674;PMS5003;30388;52.038;-1.478;2022-12-29T00:52:14;0;0;
44674;PMS5003;30388;52.038;-1.478;2022-12-29T00:54:41;0;0;
44674;PMS5003;30388;52.038;-1.478;2022-12-29T00:57:09;0;0;
44674;PMS5003;30388;52.038;-1.478;2022-12-29T00:59:36;1;1;
44674;PMS5003;30388;52.038;-1.478;2022-12-29T01:02:03;1;1;
44674;PMS5003;30388;52.038;-1.478;2022-12-29T01:04:30;2;0;
44674;PMS5003;30388;52.038;-1.478;2022-12-29T01:06:58;1;0;
44674;PMS5003;30388;52.038;-1.478;2022-12-29T01:09:26;0;0;
44674;PMS5003;30388;52.038;-1.478;2022-12-29T01:11:53;0;0;
44674;PMS5003;30388;52.038;-1.478;2022-12-29T01:14:21;1;1;
44674;PMS5003;30388;52.038;-1.478;2022-12-29T01:16:49;3;3;
44674;PMS5003;30388;52.038;-1.478;2022-12-29T01:19:17;2;0;
44674;PMS5003;30388;52.038;-1.478;2022-12-29T01:21:44;3;2;
44674;PMS5003;30388;52.038;-1.478;2022-12-29T01:24:13;0;0;
44674;PMS5003;30388;52.038;-1.478;2022-12-29T01:26:40;8;1;
44674;PMS5003;30388;52.038;-1.478;2022-12-29T01:29:08;0;0;
44674;PMS5003;30388;52.038;-1.478;2022-12-29T01:31:35;0;0;
44674;PMS5003;30388;52.038;-1.478;2022-12-29T01:34:03;1;0;
44674;PMS5003;30388;52.038;-1.478;2022-12-29T01:36:30;1;1;
44674;PMS5003;30388;52.038;-1.478;2022-12-29T01:38:57;1;1;
44674;PMS5003;30388;52.038;-1.478;2022-12-29T01:41:25;1;1;
44674;PMS5003;30388;52.038;-1.478;2022-12-29T01:43:53;0;0;
44674;PMS5003;30388;52.038;-1.478;2022-12-29T01:46:23;0;0;
44674;PMS5003;30388;52.038;-1.478;2022-12-29T01:48:54;2;1;
44674;PMS5003;30388;52.038;-1.478;2022-12-29T01:51:25;2;1;
44674;PMS5003;30388;52.038;-1.478;2022-12-29T01:53:56;0;0;
44674;PMS5003;30388;52.038;-1.478;2022-12-29T01:56:27;1;0;
44674;PMS5003;30388;52.038;-1.478;2022-12-29T01:58:54;1;0;
44674;PMS5003;30388;52.038;-1.478;2022-12-29T02:01:26;1;1;
44674;PMS5003;30388;52.038;-1.478;2022-12-29T02:03:53;1;1;
44674;PMS5003;30388;52.038;-1.478;2022-12-29T02:06:21;2;2;
44674;PMS5003;30388;52.038;-1.478;2022-12-29T02:08:52;1;0;
44674;PMS5003;30388;52.038;-1.478;2022-12-29T02:11:21;1;1;
44674;PMS5003;30388;52.038;-1.478;2022-12-29T02:13:51;2;0;
44674;PMS5003;30388;52.038;-1.478;2022-12-29T02:16:22;0;0;
44674;PMS5003;30388;52.038;-1.478;2022-12-29T02:19:07;0;0;
44674;PMS5003;30388;52.038;-1.478;2022-12-29T02:22:00;0;0;
44674;PMS5003;30388;52.038;-1.478;2022-12-29T02:24:45;0;0;
44674;PMS5003;30388;52.038;-1.478;2022-12-29T02:28:07;0;0;
44674;PMS5003;30388;52.038;-1.478;2022-12-29T02:30:57;1;1;
44674;PMS5003;30388;52.038;-1.478;2022-12-29T02:33:36;2;2;
44674;PMS5003;30388;52.038;-1.478;2022-12-29T02:36:14;0;0;
44674;PMS5003;30388;52.038;-1.478;2022-12-29T02:38:55;3;1;
44674;PMS5003;30388;52.038;-1.478;2022-12-29T02:41:32;1;1;
44674;PMS5003;30388;52.038;-1.478;2022-12-29T02:44:07;0;0;
44674;PMS5003;30388;52.038;-1.478;2022-12-29T02:46:41;1;1;
44674;PMS5003;30388;52.038;-1.478;2022-12-29T02:49:15;3;2;
44674;PMS5003;30388;52.038;-1.478;2022-12-29T02:51:48;3;1;
44674;PMS5003;30388;52.038;-1.478;2022-12-29T02:54:19;7;1;
44674;PMS5003;30388;52.038;-1.478;2022-12-29T02:56:47;0;0;
44674;PMS5003;30388;52.038;-1.478;2022-12-29T02:59:15;2;2;
44674;PMS5003;30388;52.038;-1.478;2022-12-29T03:01:46;1;1;
44674;PMS5003;30388;52.038;-1.478;2022-12-29T03:04:29;1;0;
44674;PMS5003;30388;52.038;-1.478;2022-12-29T03:07:06;0;0;
44674;PMS5003;30388;52.038;-1.478;2022-12-29T03:09:45;1;1;
44674;PMS5003;30388;52.038;-1.478;2022-12-29T03:12:22;0;0;
44674;PMS5003;30388;52.038;-1.478;2022-12-29T03:14:57;0;0;
44674;PMS5003;30388;52.038;-1.478;2022-12-29T03:17:29;0;0;
44674;PMS5003;30388;52.038;-1.478;2022-12-29T03:20:04;4;1;
44674;PMS5003;30388;52.038;-1.478;2022-12-29T03:22:34;0;0;
44674;PMS5003;30388;52.038;-1.478;2022-12-29T03:25:08;0;0;
44674;PMS5003;30388;52.038;-1.478;2022-12-29T03:27:41;2;2;
44674;PMS5003;30388;52.038;-1.478;2022-12-29T03:30:11;1;0;
44674;PMS5003;30388;52.038;-1.478;2022-12-29T03:32:40;0;0;
44674;PMS5003;30388;52.038;-1.478;2022-12-29T03:35:12;0;0;
44674;PMS5003;30388;52.038;-1.478;2022-12-29T03:37:43;0;0;
44674;PMS5003;30388;52.038;-1.478;2022-12-29T03:40:16;1;1;
44674;PMS5003;30388;52.038;-1.478;2022-12-29T03:42:45;0;0;
44674;PMS5003;30388;52.038;-1.478;2022-12-29T03:45:14;2;0;
44674;PMS5003;30388;52.038;-1.478;2022-12-29T03:47:41;3;1;
44674;PMS5003;30388;52.038;-1.478;2022-12-29T03:50:11;0;0;
44674;PMS5003;30388;52.038;-1.478;2022-12-29T03:52:38;0;0;
44674;PMS5003;30388;52.038;-1.478;2022-12-29T03:55:06;0;0;
44674;PMS5003;30388;52.038;-1.478;2022-12-29T03:57:33;0;0;
44674;PMS5003;30388;52.038;-1.478;2022-12-29T04:00:01;0;0;
44674;PMS5003;30388;52.038;-1.478;2022-12-29T04:02:30;1;0;
44674;PMS5003;30388;52.038;-1.478;2022-12-29T04:04:57;0;0;
44674;PMS5003;30388;52.038;-1.478;2022-12-29T04:07:24;0;0;
44674;PMS5003;30388;52.038;-1.478;2022-12-29T04:09:51;0;0;
44674;PMS5003;30388;52.038;-1.478;2022-12-29T04:12:18;0;0;
44674;PMS5003;30388;52.038;-1.478;2022-12-29T04:14:46;0;0;
44674;PMS5003;30388;52.038;-1.478;2022-12-29T04:17:13;1;1;
44674;PMS5003;30388;52.038;-1.478;2022-12-29T04:19:40;0;0;
44674;PMS5003;30388;52.038;-1.478;2022-12-29T04:22:07;0;0;
44674;PMS5003;30388;52.038;-1.478;2022-12-29T04:24:34;1;1;
44674;PMS5003;30388;52.038;-1.478;2022-12-29T04:27:02;2;0;
44674;PMS5003;30388;52.038;-1.478;2022-12-29T04:29:29;0;0;
44674;PMS5003;30388;52.038;-1.478;2022-12-29T04:31:56;0;0;
44674;PMS5003;30388;52.038;-1.478;2022-12-29T04:34:23;0;0;
44674;PMS5003;30388;52.038;-1.478;2022-12-29T04:36:50;2;2;
44674;PMS5003;30388;52.038;-1.478;2022-12-29T04:39:18;0;0;
44674;PMS5003;30388;52.038;-1.478;2022-12-29T04:41:45;1;1;
44674;PMS5003;30388;52.038;-1.478;2022-12-29T04:44:12;1;1;
44674;PMS5003;30388;52.038;-1.478;2022-12-29T04:46:39;0;0;
44674;PMS5003;30388;52.038;-1.478;2022-12-29T04:49:06;0;0;
44674;PMS5003;30388;52.038;-1.478;2022-12-29T04:51:34;0;0;
44674;PMS5003;30388;52.038;-1.478;2022-12-29T04:54:01;0;0;
44674;PMS5003;30388;52.038;-1.478;2022-12-29T04:56:28;0;0;
44674;PMS5003;30388;52.038;-1.478;2022-12-29T04:58:55;0;0;
44674;PMS5003;30388;52.038;-1.478;2022-12-29T05:01:22;0;0;
44674;PMS5003;30388;52.038;-1.478;2022-12-29T05:03:50;0;0;
44674;PMS5003;30388;52.038;-1.478;2022-12-29T05:06:17;0;0;
44674;PMS5003;30388;52.038;-1.478;2022-12-29T05:08:44;0;0;
44674;PMS5003;30388;52.038;-1.478;2022-12-29T05:11:11;0;0;
44674;PMS5003;30388;52.038;-1.478;2022-12-29T05:13:38;0;0;
44674;PMS5003;30388;52.038;-1.478;2022-12-29T05:16:06;0;0;
44674;PMS5003;30388;52.038;-1.478;2022-12-29T05:18:33;0;0;
44674;PMS5003;30388;52.038;-1.478;2022-12-29T05:21:00;0;0;
44674;PMS5003;30388;52.038;-1.478;2022-12-29T05:23:27;0;0;
44674;PMS5003;30388;52.038;-1.478;2022-12-29T05:25:54;0;0;
44674;PMS5003;30388;52.038;-1.478;2022-12-29T05:28:21;0;0;
44674;PMS5003;30388;52.038;-1.478;2022-12-29T05:30:49;0;0;
44674;PMS5003;30388;52.038;-1.478;2022-12-29T05:33:17;0;0;
44674;PMS5003;30388;52.038;-1.478;2022-12-29T05:35:44;0;0;
44674;PMS5003;30388;52.038;-1.478;2022-12-29T05:38:11;0;0;
44674;PMS5003;30388;52.038;-1.478;2022-12-29T05:40:38;0;0;
44674;PMS5003;30388;52.038;-1.478;2022-12-29T05:43:05;0;0;
44674;PMS5003;30388;52.038;-1.478;2022-12-29T05:45:33;0;0;
44674;PMS5003;30388;52.038;-1.478;2022-12-29T05:48:00;0;0;
44674;PMS5003;30388;52.038;-1.478;2022-12-29T05:50:27;0;0;
44674;PMS5003;30388;52.038;-1.478;2022-12-29T05:52:54;0;0;
44674;PMS5003;30388;52.038;-1.478;2022-12-29T05:55:21;0;0;
44674;PMS5003;30388;52.038;-1.478;2022-12-29T05:57:48;0;0;
44674;PMS5003;30388;52.038;-1.478;2022-12-29T06:00:16;0;0;
44674;PMS5003;30388;52.038;-1.478;2022-12-29T06:02:43;0;0;
44674;PMS5003;30388;52.038;-1.478;2022-12-29T06:05:10;0;0;
44674;PMS5003;30388;52.038;-1.478;2022-12-29T06:07:37;0;0;
44674;PMS5003;30388;52.038;-1.478;2022-12-29T06:10:05;0;0;
44674;PMS5003;30388;52.038;-1.478;2022-12-29T06:12:32;0;0;
44674;PMS5003;30388;52.038;-1.478;2022-12-29T06:15:00;0;0;
44674;PMS5003;30388;52.038;-1.478;2022-12-29T06:17:27;1;1;
44674;PMS5003;30388;52.038;-1.478;2022-12-29T06:19:54;0;0;
44674;PMS5003;30388;52.038;-1.478;2022-12-29T06:22:21;0;0;
44674;PMS5003;30388;52.038;-1.478;2022-12-29T06:24:48;0;0;
44674;PMS5003;30388;52.038;-1.478;2022-12-29T06:27:16;0;0;
44674;PMS5003;30388;52.038;-1.478;2022-12-29T06:29:43;0;0;
44674;PMS5003;30388;52.038;-1.478;2022-12-29T06:32:10;0;0;
44674;PMS5003;30388;52.038;-1.478;2022-12-29T06:34:37;0;0;
44674;PMS5003;30388;52.038;-1.478;2022-12-29T06:37:05;1;0;
44674;PMS5003;30388;52.038;-1.478;2022-12-29T06:39:32;0;0;
44674;PMS5003;30388;52.038;-1.478;2022-12-29T06:41:59;0;0;
44674;PMS5003;30388;52.038;-1.478;2022-12-29T06:44:26;0;0;
44674;PMS5003;30388;52.038;-1.478;2022-12-29T06:46:53;0;0;
44674;PMS5003;30388;52.038;-1.478;2022-12-29T06:49:20;0;0;
44674;PMS5003;30388;52.038;-1.478;2022-12-29T06:51:48;0;0;
44674;PMS5003;30388;52.038;-1.478;2022-12-29T06:54:15;0;0;
44674;PMS5003;30388;52.038;-1.478;2022-12-29T06:56:43;0;0;
44674;PMS5003;30388;52.038;-1.478;2022-12-29T06:59:10;0;0;
44674;PMS5003;30388;52.038;-1.478;2022-12-29T07:01:37;2;0;
44674;PMS5003;30388;52.038;-1.478;2022-12-29T07:04:05;0;0;
44674;PMS5003;30388;52.038;-1.478;2022-12-29T07:06:32;0;0;
44674;PMS5003;30388;52.038;-1.478;2022-12-29T07:08:59;0;0;
44674;PMS5003;30388;52.038;-1.478;2022-12-29T07:11:26;0;0;
44674;PMS5003;30388;52.038;-1.478;2022-12-29T07:13:54;0;0;
44674;PMS5003;30388;52.038;-1.478;2022-12-29T07:16:21;0;0;
44674;PMS5003;30388;52.038;-1.478;2022-12-29T07:18:48;0;0;
44674;PMS5003;30388;52.038;-1.478;2022-12-29T07:21:15;0;0;
44674;PMS5003;30388;52.038;-1.478;2022-12-29T07:23:43;0;0;
44674;PMS5003;30388;52.038;-1.478;2022-12-29T07:26:11;0;0;
44674;PMS5003;30388;52.038;-1.478;2022-12-29T07:28:40;0;0;
44674;PMS5003;30388;52.038;-1.478;2022-12-29T07:31:09;0;0;
44674;PMS5003;30388;52.038;-1.478;2022-12-29T07:33:41;0;0;
44674;PMS5003;30388;52.038;-1.478;2022-12-29T07:36:09;0;0;
44674;PMS5003;30388;52.038;-1.478;2022-12-29T07:38:36;1;1;
44674;PMS5003;30388;52.038;-1.478;2022-12-29T07:41:04;0;0;
44674;PMS5003;30388;52.038;-1.478;2022-12-29T07:43:31;0;0;
44674;PMS5003;30388;52.038;-1.478;2022-12-29T07:45:58;0;0;
44674;PMS5003;30388;52.038;-1.478;2022-12-29T07:48:25;0;0;
44674;PMS5003;30388;52.038;-1.478;2022-12-29T07:50:52;1;1;
44674;PMS5003;30388;52.038;-1.478;2022-12-29T07:53:20;0;0;
44674;PMS5003;30388;52.038;-1.478;2022-12-29T07:55:47;0;0;
44674;PMS5003;30388;52.038;-1.478;2022-12-29T07:58:14;0;0;
44674;PMS5003;30388;52.038;-1.478;2022-12-29T08:00:41;0;0;
44674;PMS5003;30388;52.038;-1.478;2022-12-29T08:03:09;0;0;
44674;PMS5003;30388;52.038;-1.478;2022-12-29T08:05:36;0;0;
44674;PMS5003;30388;52.038;-1.478;2022-12-29T08:08:03;0;0;
44674;PMS5003;30388;52.038;-1.478;2022-12-29T08:10:30;0;0;
44674;PMS5003;30388;52.038;-1.478;2022-12-29T08:12:58;0;0;
44674;PMS5003;30388;52.038;-1.478;2022-12-29T08:15:25;1;0;
44674;PMS5003;30388;52.038;-1.478;2022-12-29T08:17:52;0;0;
44674;PMS5003;30388;52.038;-1.478;2022-12-29T08:20:19;2;0;
44674;PMS5003;30388;52.038;-1.478;2022-12-29T08:22:47;0;0;
44674;PMS5003;30388;52.038;-1.478;2022-12-29T08:25:14;0;0;
44674;PMS5003;30388;52.038;-1.478;2022-12-29T08:27:41;0;0;
44674;PMS5003;30388;52.038;-1.478;2022-12-29T08:30:09;0;0;
44674;PMS5003;30388;52.038;-1.478;2022-12-29T08:32:37;0;0;
44674;PMS5003;30388;52.038;-1.478;2022-12-29T08:35:04;0;0;
44674;PMS5003;30388;52.038;-1.478;2022-12-29T08:37:31;0;0;
44674;PMS5003;30388;52.038;-1.478;2022-12-29T08:39:59;1;1;
44674;PMS5003;30388;52.038;-1.478;2022-12-29T08:42:27;0;0;
44674;PMS5003;30388;52.038;-1.478;2022-12-29T08:44:54;0;0;
44674;PMS5003;30388;52.038;-1.478;2022-12-29T08:47:21;0;0;
44674;PMS5003;30388;52.038;-1.478;2022-12-29T08:49:48;1;0;
44674;PMS5003;30388;52.038;-1.478;2022-12-29T08:52:16;1;1;
44674;PMS5003;30388;52.038;-1.478;2022-12-29T08:54:44;2;0;
44674;PMS5003;30388;52.038;-1.478;2022-12-29T08:57:11;0;0;
44674;PMS5003;30388;52.038;-1.478;2022-12-29T08:59:38;1;0;
44674;PMS5003;30388;52.038;-1.478;2022-12-29T09:02:05;1;1;
44674;PMS5003;30388;52.038;-1.478;2022-12-29T09:04:36;2;0;
44674;PMS5003;30388;52.038;-1.478;2022-12-29T09:07:03;1;0;
44674;PMS5003;30388;52.038;-1.478;2022-12-29T09:09:31;0;0;
44674;PMS5003;30388;52.038;-1.478;2022-12-29T09:11:58;0;0;
44674;PMS5003;30388;52.038;-1.478;2022-12-29T09:14:25;11;11;
44674;PMS5003;30388;52.038;-1.478;2022-12-29T09:16:53;2;1;
44674;PMS5003;30388;52.038;-1.478;2022-12-29T09:19:23;1;0;
44674;PMS5003;30388;52.038;-1.478;2022-12-29T09:21:51;0;0;
44674;PMS5003;30388;52.038;-1.478;2022-12-29T09:24:18;0;0;
44674;PMS5003;30388;52.038;-1.478;2022-12-29T09:26:46;0;0;
44674;PMS5003;30388;52.038;-1.478;2022-12-29T09:29:14;0;0;
44674;PMS5003;30388;52.038;-1.478;2022-12-29T09:31:42;2;0;
44674;PMS5003;30388;52.038;-1.478;2022-12-29T09:34:10;0;0;
44674;PMS5003;30388;52.038;-1.478;2022-12-29T09:36:37;1;1;
44674;PMS5003;30388;52.038;-1.478;2022-12-29T09:39:05;0;0;
44674;PMS5003;30388;52.038;-1.478;2022-12-29T09:41:34;4;4;
44674;PMS5003;30388;52.038;-1.478;2022-12-29T09:44:07;0;0;
44674;PMS5003;30388;52.038;-1.478;2022-12-29T09:46:45;9;9;
44674;PMS5003;30388;52.038;-1.478;2022-12-29T09:49:21;0;0;
44674;PMS5003;30388;52.038;-1.478;2022-12-29T09:51:57;0;0;
44674;PMS5003;30388;52.038;-1.478;2022-12-29T09:54:42;1;1;
44674;PMS5003;30388;52.038;-1.478;2022-12-29T09:57:21;0;0;
44674;PMS5003;30388;52.038;-1.478;2022-12-29T09:59:54;1;0;
44674;PMS5003;30388;52.038;-1.478;2022-12-29T10:02:30;0;0;
44674;PMS5003;30388;52.038;-1.478;2022-12-29T10:05:04;0;0;
44674;PMS5003;30388;52.038;-1.478;2022-12-29T10:07:45;0;0;
44674;PMS5003;30388;52.038;-1.478;2022-12-29T10:10:26;1;1;
44674;PMS5003;30388;52.038;-1.478;2022-12-29T10:13:09;0;0;
44674;PMS5003;30388;52.038;-1.478;2022-12-29T10:15:55;0;0;
44674;PMS5003;30388;52.038;-1.478;2022-12-29T10:18:34;1;1;
44674;PMS5003;30388;52.038;-1.478;2022-12-29T10:21:15;1;0;
44674;PMS5003;30388;52.038;-1.478;2022-12-29T10:23:55;3;3;
44674;PMS5003;30388;52.038;-1.478;2022-12-29T10:26:23;0;0;
44674;PMS5003;30388;52.038;-1.478;2022-12-29T10:28:57;0;0;
44674;PMS5003;30388;52.038;-1.478;2022-12-29T10:31:33;0;0;
44674;PMS5003;30388;52.038;-1.478;2022-12-29T10:34:10;0;0;
44674;PMS5003;30388;52.038;-1.478;2022-12-29T10:36:47;3;3;
44674;PMS5003;30388;52.038;-1.478;2022-12-29T10:39:18;0;0;
44674;PMS5003;30388;52.038;-1.478;2022-12-29T10:41:50;0;0;
44674;PMS5003;30388;52.038;-1.478;2022-12-29T10:44:23;0;0;
44674;PMS5003;30388;52.038;-1.478;2022-12-29T10:46:57;1;1;
44674;PMS5003;30388;52.038;-1.478;2022-12-29T10:49:26;0;0;
44674;PMS5003;30388;52.038;-1.478;2022-12-29T10:51:57;0;0;
44674;PMS5003;30388;52.038;-1.478;2022-12-29T10:54:31;0;0;
44674;PMS5003;30388;52.038;-1.478;2022-12-29T10:57:07;0;0;
44674;PMS5003;30388;52.038;-1.478;2022-12-29T10:59:40;2;1;
44674;PMS5003;30388;52.038;-1.478;2022-12-29T11:02:15;0;0;
44674;PMS5003;30388;52.038;-1.478;2022-12-29T11:04:55;0;0;
44674;PMS5003;30388;52.038;-1.478;2022-12-29T11:07:28;0;0;
44674;PMS5003;30388;52.038;-1.478;2022-12-29T11:10:15;1;1;
44674;PMS5003;30388;52.038;-1.478;2022-12-29T11:12:54;1;1;
44674;PMS5003;30388;52.038;-1.478;2022-12-29T11:15:23;0;0;
44674;PMS5003;30388;52.038;-1.478;2022-12-29T11:17:52;0;0;
44674;PMS5003;30388;52.038;-1.478;2022-12-29T11:20:30;0;0;
44674;PMS5003;30388;52.038;-1.478;2022-12-29T11:23:00;0;0;
44674;PMS5003;30388;52.038;-1.478;2022-12-29T11:25:28;1;1;
44674;PMS5003;30388;52.038;-1.478;2022-12-29T11:27:57;0;0;
44674;PMS5003;30388;52.038;-1.478;2022-12-29T11:30:27;2;1;
44674;PMS5003;30388;52.038;-1.478;2022-12-29T11:32:57;0;0;
44674;PMS5003;30388;52.038;-1.478;2022-12-29T11:35:33;4;4;
44674;PMS5003;30388;52.038;-1.478;2022-12-29T11:38:02;1;1;
44674;PMS5003;30388;52.038;-1.478;2022-12-29T11:40:40;0;0;
44674;PMS5003;30388;52.038;-1.478;2022-12-29T11:43:11;0;0;
44674;PMS5003;30388;52.038;-1.478;2022-12-29T11:45:49;0;0;
44674;PMS5003;30388;52.038;-1.478;2022-12-29T11:48:20;5;5;
44674;PMS5003;30388;52.038;-1.478;2022-12-29T11:50:49;19;19;
44674;PMS5003;30388;52.038;-1.478;2022-12-29T11:53:20;5;2;
44674;PMS5003;30388;52.038;-1.478;2022-12-29T11:55:51;1;0;
44674;PMS5003;30388;52.038;-1.478;2022-12-29T11:58:20;12;12;
44674;PMS5003;30388;52.038;-1.478;2022-12-29T12:00:55;2;1;
44674;PMS5003;30388;52.038;-1.478;2022-12-29T12:03:24;0;0;
44674;PMS5003;30388;52.038;-1.478;2022-12-29T12:06:00;1;0;
44674;PMS5003;30388;52.038;-1.478;2022-12-29T12:08:31;2;2;
44674;PMS5003;30388;52.038;-1.478;2022-12-29T12:11:06;1;1;
44674;PMS5003;30388;52.038;-1.478;2022-12-29T12:13:39;0;0;
44674;PMS5003;30388;52.038;-1.478;2022-12-29T12:16:15;1;1;
44674;PMS5003;30388;52.038;-1.478;2022-12-29T12:18:47;0;0;
44674;PMS5003;30388;52.038;-1.478;2022-12-29T12:21:21;2;2;
44674;PMS5003;30388;52.038;-1.478;2022-12-29T12:24:02;5;5;
44674;PMS5003;30388;52.038;-1.478;2022-12-29T12:26:52;2;1;
44674;PMS5003;30388;52.038;-1.478;2022-12-29T12:29:25;15;15;
44674;PMS5003;30388;52.038;-1.478;2022-12-29T12:32:04;14;14;
44674;PMS5003;30388;52.038;-1.478;2022-12-29T12:34:41;5;5;
44674;PMS5003;30388;52.038;-1.478;2022-12-29T12:37:17;2;2;
44674;PMS5003;30388;52.038;-1.478;2022-12-29T12:40:11;5;5;
44674;PMS5003;30388;52.038;-1.478;2022-12-29T12:43:01;2;1;
44674;PMS5003;30388;52.038;-1.478;2022-12-29T12:45:45;4;4;
44674;PMS5003;30388;52.038;-1.478;2022-12-29T12:48:29;2;2;
44674;PMS5003;30388;52.038;-1.478;2022-12-29T12:51:11;1;1;
44674;PMS5003;30388;52.038;-1.478;2022-12-29T12:53:53;7;7;
44674;PMS5003;30388;52.038;-1.478;2022-12-29T12:56:41;23;23;
44674;PMS5003;30388;52.038;-1.478;2022-12-29T12:59:24;38;38;
44674;PMS5003;30388;52.038;-1.478;2022-12-29T13:02:01;36;35;
44674;PMS5003;30388;52.038;-1.478;2022-12-29T13:04:51;33;33;
44674;PMS5003;30388;52.038;-1.478;2022-12-29T13:07:36;39;39;
44674;PMS5003;30388;52.038;-1.478;2022-12-29T13:10:19;67;66;
44674;PMS5003;30388;52.038;-1.478;2022-12-29T13:13:00;25;25;
44674;PMS5003;30388;52.038;-1.478;2022-12-29T13:15:48;14;14;
44674;PMS5003;30388;52.038;-1.478;2022-12-29T13:18:23;2;2;
44674;PMS5003;30388;52.038;-1.478;2022-12-29T13:20:59;1;1;
44674;PMS5003;30388;52.038;-1.478;2022-12-29T13:23:34;0;0;
44674;PMS5003;30388;52.038;-1.478;2022-12-29T13:26:08;0;0;
44674;PMS5003;30388;52.038;-1.478;2022-12-29T13:28:45;0;0;
44674;PMS5003;30388;52.038;-1.478;2022-12-29T13:31:20;1;0;
44674;PMS5003;30388;52.038;-1.478;2022-12-29T13:33:59;0;0;
44674;PMS5003;30388;52.038;-1.478;2022-12-29T13:36:34;0;0;
44674;PMS5003;30388;52.038;-1.478;2022-12-29T13:39:09;0;0;
44674;PMS5003;30388;52.038;-1.478;2022-12-29T13:41:44;2;0;
44674;PMS5003;30388;52.038;-1.478;2022-12-29T13:44:17;0;0;
44674;PMS5003;30388;52.038;-1.478;2022-12-29T13:46:48;0;0;
44674;PMS5003;30388;52.038;-1.478;2022-12-29T13:49:17;0;0;
44674;PMS5003;30388;52.038;-1.478;2022-12-29T13:51:47;1;0;
44674;PMS5003;30388;52.038;-1.478;2022-12-29T13:54:21;0;0;
44674;PMS5003;30388;52.038;-1.478;2022-12-29T13:57:01;1;1;
44674;PMS5003;30388;52.038;-1.478;2022-12-29T13:59:39;0;0;
44674;PMS5003;30388;52.038;-1.478;2022-12-29T14:02:19;0;0;
44674;PMS5003;30388;52.038;-1.478;2022-12-29T14:04:59;1;1;
44674;PMS5003;30388;52.038;-1.478;2022-12-29T14:07:28;1;1;
44674;PMS5003;30388;52.038;-1.478;2022-12-29T14:10:03;0;0;
44674;PMS5003;30388;52.038;-1.478;2022-12-29T14:12:32;2;2;
44674;PMS5003;30388;52.038;-1.478;2022-12-29T14:15:04;3;1;
44674;PMS5003;30388;52.038;-1.478;2022-12-29T14:17:40;2;1;
44674;PMS5003;30388;52.038;-1.478;2022-12-29T14:20:16;4;1;
44674;PMS5003;30388;52.038;-1.478;2022-12-29T14:22:57;2;1;
44674;PMS5003;30388;52.038;-1.478;2022-12-29T14:26:00;2;1;
44674;PMS5003;30388;52.038;-1.478;2022-12-29T14:28:38;2;1;
44674;PMS5003;30388;52.038;-1.478;2022-12-29T14:31:32;0;0;
44674;PMS5003;30388;52.038;-1.478;2022-12-29T14:36:21;1;0;
44674;PMS5003;30388;52.038;-1.478;2022-12-29T14:38:59;1;1;
44674;PMS5003;30388;52.038;-1.478;2022-12-29T14:41:27;0;0;
44674;PMS5003;30388;52.038;-1.478;2022-12-29T14:43:59;6;2;
44674;PMS5003;30388;52.038;-1.478;2022-12-29T14:46:45;1;1;
44674;PMS5003;30388;52.038;-1.478;2022-12-29T14:49:16;1;1;
44674;PMS5003;30388;52.038;-1.478;2022-12-29T14:51:46;3;3;
44674;PMS5003;30388;52.038;-1.478;2022-12-29T14:54:34;0;0;
44674;PMS5003;30388;52.038;-1.478;2022-12-29T14:57:10;0;0;
44674;PMS5003;30388;52.038;-1.478;2022-12-29T14:59:47;0;0;
44674;PMS5003;30388;52.038;-1.478;2022-12-29T15:02:20;1;1;
44674;PMS5003;30388;52.038;-1.478;2022-12-29T15:04:53;0;0;
44674;PMS5003;30388;52.038;-1.478;2022-12-29T15:07:26;0;0;
44674;PMS5003;30388;52.038;-1.478;2022-12-29T15:09:56;0;0;
44674;PMS5003;30388;52.038;-1.478;2022-12-29T15:12:33;0;0;
44674;PMS5003;30388;52.038;-1.478;2022-12-29T15:15:19;1;1;
44674;PMS5003;30388;52.038;-1.478;2022-12-29T15:17:48;0;0;
44674;PMS5003;30388;52.038;-1.478;2022-12-29T15:20:21;1;1;
44674;PMS5003;30388;52.038;-1.478;2022-12-29T15:22:53;3;1;
44674;PMS5003;30388;52.038;-1.478;2022-12-29T15:25:22;3;1;
44674;PMS5003;30388;52.038;-1.478;2022-12-29T15:27:50;3;3;
44674;PMS5003;30388;52.038;-1.478;2022-12-29T15:30:20;3;2;
44674;PMS5003;30388;52.038;-1.478;2022-12-29T15:32:48;1;1;
44674;PMS5003;30388;52.038;-1.478;2022-12-29T15:35:24;0;0;
44674;PMS5003;30388;52.038;-1.478;2022-12-29T15:37:58;2;2;
44674;PMS5003;30388;52.038;-1.478;2022-12-29T15:40:26;0;0;
44674;PMS5003;30388;52.038;-1.478;2022-12-29T15:43:00;0;0;
44674;PMS5003;30388;52.038;-1.478;2022-12-29T15:45:41;4;4;
44674;PMS5003;30388;52.038;-1.478;2022-12-29T15:48:10;1;0;
44674;PMS5003;30388;52.038;-1.478;2022-12-29T15:50:44;1;0;
44674;PMS5003;30388;52.038;-1.478;2022-12-29T15:53:16;0;0;
44674;PMS5003;30388;52.038;-1.478;2022-12-29T15:55:47;1;1;
44674;PMS5003;30388;52.038;-1.478;2022-12-29T15:58:18;2;0;
44674;PMS5003;30388;52.038;-1.478;2022-12-29T16:00:48;1;0;
44674;PMS5003;30388;52.038;-1.478;2022-12-29T16:03:17;3;3;
44674;PMS5003;30388;52.038;-1.478;2022-12-29T16:05:50;0;0;
44674;PMS5003;30388;52.038;-1.478;2022-12-29T16:08:22;3;1;
44674;PMS5003;30388;52.038;-1.478;2022-12-29T16:10:57;1;0;
44674;PMS5003;30388;52.038;-1.478;2022-12-29T16:13:26;0;0;
44674;PMS5003;30388;52.038;-1.478;2022-12-29T16:15:59;8;8;
44674;PMS5003;30388;52.038;-1.478;2022-12-29T16:18:34;0;0;
44674;PMS5003;30388;52.038;-1.478;2022-12-29T16:21:04;1;1;
44674;PMS5003;30388;52.038;-1.478;2022-12-29T16:23:42;0;0;
44674;PMS5003;30388;52.038;-1.478;2022-12-29T16:26:16;0;0;
44674;PMS5003;30388;52.038;-1.478;2022-12-29T16:28:47;1;1;
44674;PMS5003;30388;52.038;-1.478;2022-12-29T16:31:20;1;1;
44674;PMS5003;30388;52.038;-1.478;2022-12-29T16:33:49;0;0;
44674;PMS5003;30388;52.038;-1.478;2022-12-29T16:36:33;0;0;
44674;PMS5003;30388;52.038;-1.478;2022-12-29T16:39:39;5;2;
44674;PMS5003;30388;52.038;-1.478;2022-12-29T16:42:46;1;1;
44674;PMS5003;30388;52.038;-1.478;2022-12-29T16:46:14;0;0;
44674;PMS5003;30388;52.038;-1.478;2022-12-29T16:48:49;2;1;
44674;PMS5003;30388;52.038;-1.478;2022-12-29T16:51:21;0;0;
44674;PMS5003;30388;52.038;-1.478;2022-12-29T16:53:57;1;1;
44674;PMS5003;30388;52.038;-1.478;2022-12-29T16:56:27;1;0;
44674;PMS5003;30388;52.038;-1.478;2022-12-29T16:58:59;0;0;
44674;PMS5003;30388;52.038;-1.478;2022-12-29T17:01:30;0;0;
44674;PMS5003;30388;52.038;-1.478;2022-12-29T17:03:58;0;0;
44674;PMS5003;30388;52.038;-1.478;2022-12-29T17:06:28;0;0;